sensor_id;sensor_type;location;lat;lon;timestamp;P1;durP1;ratioP1;P2;durP2;ratioP2
54795;SDS011;40693;43.884;20.340;2022-09-28T00:00:38;13.75;;;7.95;;
54795;SDS011;40693;43.884;20.340;2022-09-28T00:03:07;13.25;;;9.40;;
54795;SDS011;40693;43.884;20.340;2022-09-28T00:05:33;14.95;;;9.23;;
54795;SDS011;40693;43.884;20.340;2022-09-28T00:07:59;15.10;;;9.15;;
54795;SDS011;40693;43.884;20.340;2022-09-28T00:10:25;13.15;;;8.32;;
54795;SDS011;40693;43.884;20.340;2022-09-28T00:12:51;12.00;;;7.88;;
54795;SDS011;40693;43.884;20.340;2022-09-28T00:15:19;16.30;;;9.43;;
54795;SDS011;40693;43.884;20.340;2022-09-28T00:17:45;16.00;;;8.45;;
54795;SDS011;40693;43.884;20.340;2022-09-28T00:20:11;13.40;;;8.70;;
54795;SDS011;40693;43.884;20.340;2022-09-28T00:22:38;14.25;;;7.40;;
54795;SDS011;40693;43.884;20.340;2022-09-28T00:25:05;11.30;;;7.13;;
54795;SDS011;40693;43.884;20.340;2022-09-28T00:27:31;15.05;;;8.57;;
54795;SDS011;40693;43.884;20.340;2022-09-28T00:29:57;15.63;;;8.10;;
54795;SDS011;40693;43.884;20.340;2022-09-28T00:32:23;13.25;;;7.55;;
54795;SDS011;40693;43.884;20.340;2022-09-28T00:34:49;10.80;;;5.97;;
54795;SDS011;40693;43.884;20.340;2022-09-28T00:37:16;15.38;;;7.93;;
54795;SDS011;40693;43.884;20.340;2022-09-28T00:39:46;11.52;;;6.25;;
54795;SDS011;40693;43.884;20.340;2022-09-28T00:45:01;10.45;;;7.22;;
54795;SDS011;40693;43.884;20.340;2022-09-28T00:52:35;15.10;;;7.07;;
54795;SDS011;40693;43.884;20.340;2022-09-28T00:55:14;17.30;;;8.30;;
54795;SDS011;40693;43.884;20.340;2022-09-28T00:57:46;16.90;;;7.38;;
54795;SDS011;40693;43.884;20.340;2022-09-28T01:00:15;16.73;;;8.90;;
54795;SDS011;40693;43.884;20.340;2022-09-28T01:02:42;17.45;;;9.88;;
54795;SDS011;40693;43.884;20.340;2022-09-28T01:05:09;16.88;;;9.38;;
54795;SDS011;40693;43.884;20.340;2022-09-28T01:07:36;12.90;;;10.13;;
54795;SDS011;40693;43.884;20.340;2022-09-28T01:10:03;12.43;;;7.50;;
54795;SDS011;40693;43.884;20.340;2022-09-28T01:12:29;11.50;;;7.32;;
54795;SDS011;40693;43.884;20.340;2022-09-28T01:14:55;11.90;;;8.00;;
54795;SDS011;40693;43.884;20.340;2022-09-28T01:25:44;10.93;;;7.88;;
54795;SDS011;40693;43.884;20.340;2022-09-28T01:28:19;9.00;;;6.80;;
54795;SDS011;40693;43.884;20.340;2022-09-28T01:33:22;10.02;;;7.35;;
54795;SDS011;40693;43.884;20.340;2022-09-28T01:35:55;14.83;;;8.67;;
54795;SDS011;40693;43.884;20.340;2022-09-28T01:38:30;9.65;;;6.55;;
54795;SDS011;40693;43.884;20.340;2022-09-28T01:41:02;12.40;;;5.90;;
54795;SDS011;40693;43.884;20.340;2022-09-28T01:43:29;11.15;;;5.18;;
54795;SDS011;40693;43.884;20.340;2022-09-28T01:46:01;10.13;;;4.78;;
54795;SDS011;40693;43.884;20.340;2022-09-28T01:48:35;7.55;;;4.38;;
54795;SDS011;40693;43.884;20.340;2022-09-28T01:51:20;10.45;;;4.90;;
54795;SDS011;40693;43.884;20.340;2022-09-28T01:53:52;10.85;;;6.57;;
54795;SDS011;40693;43.884;20.340;2022-09-28T01:56:23;8.20;;;5.85;;
54795;SDS011;40693;43.884;20.340;2022-09-28T01:58:59;11.40;;;5.78;;
54795;SDS011;40693;43.884;20.340;2022-09-28T02:01:45;14.30;;;6.55;;
54795;SDS011;40693;43.884;20.340;2022-09-28T02:04:17;9.80;;;5.57;;
54795;SDS011;40693;43.884;20.340;2022-09-28T02:07:00;7.03;;;5.40;;
54795;SDS011;40693;43.884;20.340;2022-09-28T02:09:34;8.57;;;5.53;;
54795;SDS011;40693;43.884;20.340;2022-09-28T02:12:15;12.13;;;6.00;;
54795;SDS011;40693;43.884;20.340;2022-09-28T02:14:48;12.27;;;6.55;;
54795;SDS011;40693;43.884;20.340;2022-09-28T02:17:16;11.88;;;6.20;;
54795;SDS011;40693;43.884;20.340;2022-09-28T02:19:42;11.60;;;6.72;;
54795;SDS011;40693;43.884;20.340;2022-09-28T02:22:27;9.02;;;6.80;;
54795;SDS011;40693;43.884;20.340;2022-09-28T02:24:58;10.05;;;6.30;;
54795;SDS011;40693;43.884;20.340;2022-09-28T02:27:29;7.82;;;4.93;;
54795;SDS011;40693;43.884;20.340;2022-09-28T02:30:03;20.83;;;14.38;;
54795;SDS011;40693;43.884;20.340;2022-09-28T02:32:30;15.75;;;10.65;;
54795;SDS011;40693;43.884;20.340;2022-09-28T02:34:58;15.85;;;7.22;;
54795;SDS011;40693;43.884;20.340;2022-09-28T02:37:24;11.98;;;8.27;;
54795;SDS011;40693;43.884;20.340;2022-09-28T02:39:51;11.25;;;8.15;;
54795;SDS011;40693;43.884;20.340;2022-09-28T02:50:32;12.57;;;5.10;;
54795;SDS011;40693;43.884;20.340;2022-09-28T03:03:47;6.43;;;4.15;;
54795;SDS011;40693;43.884;20.340;2022-09-28T03:06:38;9.32;;;4.85;;
54795;SDS011;40693;43.884;20.340;2022-09-28T03:09:18;9.23;;;6.07;;
54795;SDS011;40693;43.884;20.340;2022-09-28T03:11:54;9.07;;;4.43;;
54795;SDS011;40693;43.884;20.340;2022-09-28T03:14:23;8.93;;;4.65;;
54795;SDS011;40693;43.884;20.340;2022-09-28T03:16:49;23.20;;;16.23;;
54795;SDS011;40693;43.884;20.340;2022-09-28T03:19:15;14.02;;;9.15;;
54795;SDS011;40693;43.884;20.340;2022-09-28T03:21:46;12.13;;;5.82;;
54795;SDS011;40693;43.884;20.340;2022-09-28T03:24:11;6.78;;;4.93;;
54795;SDS011;40693;43.884;20.340;2022-09-28T03:26:37;6.47;;;4.10;;
54795;SDS011;40693;43.884;20.340;2022-09-28T03:29:03;8.85;;;5.93;;
54795;SDS011;40693;43.884;20.340;2022-09-28T03:31:29;10.55;;;3.97;;
54795;SDS011;40693;43.884;20.340;2022-09-28T03:33:55;9.98;;;4.85;;
54795;SDS011;40693;43.884;20.340;2022-09-28T03:36:21;6.85;;;3.88;;
54795;SDS011;40693;43.884;20.340;2022-09-28T03:38:46;5.22;;;3.83;;
54795;SDS011;40693;43.884;20.340;2022-09-28T03:41:12;12.80;;;4.28;;
54795;SDS011;40693;43.884;20.340;2022-09-28T03:43:38;6.97;;;4.30;;
54795;SDS011;40693;43.884;20.340;2022-09-28T03:46:04;6.55;;;3.83;;
54795;SDS011;40693;43.884;20.340;2022-09-28T03:48:32;6.43;;;3.97;;
54795;SDS011;40693;43.884;20.340;2022-09-28T03:51:00;10.25;;;4.57;;
54795;SDS011;40693;43.884;20.340;2022-09-28T03:53:27;14.63;;;8.48;;
54795;SDS011;40693;43.884;20.340;2022-09-28T03:55:54;19.45;;;11.23;;
54795;SDS011;40693;43.884;20.340;2022-09-28T03:58:21;24.55;;;15.05;;
54795;SDS011;40693;43.884;20.340;2022-09-28T04:00:47;29.35;;;18.45;;
54795;SDS011;40693;43.884;20.340;2022-09-28T04:03:14;26.63;;;17.75;;
54795;SDS011;40693;43.884;20.340;2022-09-28T04:05:49;20.35;;;12.57;;
54795;SDS011;40693;43.884;20.340;2022-09-28T04:08:17;11.55;;;7.03;;
54795;SDS011;40693;43.884;20.340;2022-09-28T04:10:43;17.02;;;6.13;;
54795;SDS011;40693;43.884;20.340;2022-09-28T04:13:09;17.00;;;6.07;;
54795;SDS011;40693;43.884;20.340;2022-09-28T04:15:35;16.40;;;5.82;;
54795;SDS011;40693;43.884;20.340;2022-09-28T04:18:02;8.48;;;6.55;;
54795;SDS011;40693;43.884;20.340;2022-09-28T04:20:29;11.90;;;6.88;;
54795;SDS011;40693;43.884;20.340;2022-09-28T04:22:56;9.48;;;6.50;;
54795;SDS011;40693;43.884;20.340;2022-09-28T04:25:22;10.85;;;5.70;;
54795;SDS011;40693;43.884;20.340;2022-09-28T04:27:48;8.27;;;5.82;;
54795;SDS011;40693;43.884;20.340;2022-09-28T04:30:32;8.98;;;5.50;;
54795;SDS011;40693;43.884;20.340;2022-09-28T04:32:59;7.97;;;5.47;;
54795;SDS011;40693;43.884;20.340;2022-09-28T04:35:24;8.80;;;5.45;;
54795;SDS011;40693;43.884;20.340;2022-09-28T04:37:50;6.80;;;4.75;;
54795;SDS011;40693;43.884;20.340;2022-09-28T04:40:16;15.35;;;6.68;;
54795;SDS011;40693;43.884;20.340;2022-09-28T04:42:41;13.75;;;6.80;;
54795;SDS011;40693;43.884;20.340;2022-09-28T04:45:07;11.77;;;7.28;;
54795;SDS011;40693;43.884;20.340;2022-09-28T04:47:33;12.63;;;6.53;;
54795;SDS011;40693;43.884;20.340;2022-09-28T04:49:59;13.35;;;6.88;;
54795;SDS011;40693;43.884;20.340;2022-09-28T04:52:25;19.00;;;7.88;;
54795;SDS011;40693;43.884;20.340;2022-09-28T04:54:51;17.27;;;8.18;;
54795;SDS011;40693;43.884;20.340;2022-09-28T04:57:17;16.45;;;7.30;;
54795;SDS011;40693;43.884;20.340;2022-09-28T04:59:43;15.43;;;8.90;;
54795;SDS011;40693;43.884;20.340;2022-09-28T05:02:09;14.73;;;9.10;;
54795;SDS011;40693;43.884;20.340;2022-09-28T05:04:35;16.85;;;8.88;;
54795;SDS011;40693;43.884;20.340;2022-09-28T05:07:01;13.32;;;8.82;;
54795;SDS011;40693;43.884;20.340;2022-09-28T05:09:27;20.58;;;9.23;;
54795;SDS011;40693;43.884;20.340;2022-09-28T05:11:53;17.25;;;9.20;;
54795;SDS011;40693;43.884;20.340;2022-09-28T05:14:18;13.05;;;8.52;;
54795;SDS011;40693;43.884;20.340;2022-09-28T05:16:47;30.92;;;14.77;;
54795;SDS011;40693;43.884;20.340;2022-09-28T05:19:13;24.33;;;12.85;;
54795;SDS011;40693;43.884;20.340;2022-09-28T05:21:39;31.88;;;19.05;;
54795;SDS011;40693;43.884;20.340;2022-09-28T05:24:09;24.92;;;14.50;;
54795;SDS011;40693;43.884;20.340;2022-09-28T05:26:36;20.52;;;12.88;;
54795;SDS011;40693;43.884;20.340;2022-09-28T05:29:01;21.15;;;12.63;;
54795;SDS011;40693;43.884;20.340;2022-09-28T05:31:27;19.08;;;11.60;;
54795;SDS011;40693;43.884;20.340;2022-09-28T05:33:53;25.33;;;12.55;;
54795;SDS011;40693;43.884;20.340;2022-09-28T05:36:19;17.65;;;11.25;;
54795;SDS011;40693;43.884;20.340;2022-09-28T05:38:46;20.23;;;13.15;;
54795;SDS011;40693;43.884;20.340;2022-09-28T05:41:12;20.73;;;13.30;;
54795;SDS011;40693;43.884;20.340;2022-09-28T05:43:37;25.40;;;14.90;;
54795;SDS011;40693;43.884;20.340;2022-09-28T05:46:04;21.88;;;13.43;;
54795;SDS011;40693;43.884;20.340;2022-09-28T05:48:30;27.20;;;14.85;;
54795;SDS011;40693;43.884;20.340;2022-09-28T05:50:55;20.70;;;13.48;;
54795;SDS011;40693;43.884;20.340;2022-09-28T05:53:23;22.10;;;13.00;;
54795;SDS011;40693;43.884;20.340;2022-09-28T05:55:49;17.27;;;12.98;;
54795;SDS011;40693;43.884;20.340;2022-09-28T05:58:15;18.73;;;14.02;;
54795;SDS011;40693;43.884;20.340;2022-09-28T06:00:41;19.67;;;13.35;;
54795;SDS011;40693;43.884;20.340;2022-09-28T06:03:10;20.73;;;14.63;;
54795;SDS011;40693;43.884;20.340;2022-09-28T06:05:37;25.85;;;17.80;;
54795;SDS011;40693;43.884;20.340;2022-09-28T06:08:07;27.00;;;17.70;;
54795;SDS011;40693;43.884;20.340;2022-09-28T06:10:34;36.88;;;26.73;;
54795;SDS011;40693;43.884;20.340;2022-09-28T06:13:00;33.97;;;24.80;;
54795;SDS011;40693;43.884;20.340;2022-09-28T06:15:27;30.73;;;20.80;;
54795;SDS011;40693;43.884;20.340;2022-09-28T06:18:04;31.33;;;20.70;;
54795;SDS011;40693;43.884;20.340;2022-09-28T06:20:32;31.15;;;20.08;;
54795;SDS011;40693;43.884;20.340;2022-09-28T06:23:00;34.47;;;21.00;;
54795;SDS011;40693;43.884;20.340;2022-09-28T06:25:26;34.35;;;24.92;;
54795;SDS011;40693;43.884;20.340;2022-09-28T06:27:59;47.95;;;30.75;;
54795;SDS011;40693;43.884;20.340;2022-09-28T06:30:27;39.20;;;26.30;;
54795;SDS011;40693;43.884;20.340;2022-09-28T06:32:57;39.70;;;25.52;;
54795;SDS011;40693;43.884;20.340;2022-09-28T06:35:24;34.13;;;21.08;;
54795;SDS011;40693;43.884;20.340;2022-09-28T06:37:51;39.55;;;22.02;;
54795;SDS011;40693;43.884;20.340;2022-09-28T06:40:18;31.38;;;19.08;;
54795;SDS011;40693;43.884;20.340;2022-09-28T06:42:53;28.88;;;19.73;;
54795;SDS011;40693;43.884;20.340;2022-09-28T06:45:23;35.25;;;23.45;;
54795;SDS011;40693;43.884;20.340;2022-09-28T06:47:53;34.38;;;23.92;;
54795;SDS011;40693;43.884;20.340;2022-09-28T06:50:21;31.08;;;24.40;;
54795;SDS011;40693;43.884;20.340;2022-09-28T06:52:51;25.70;;;20.10;;
54795;SDS011;40693;43.884;20.340;2022-09-28T06:55:18;29.88;;;22.75;;
54795;SDS011;40693;43.884;20.340;2022-09-28T06:57:44;28.27;;;21.45;;
54795;SDS011;40693;43.884;20.340;2022-09-28T07:00:10;33.30;;;22.23;;
54795;SDS011;40693;43.884;20.340;2022-09-28T07:02:36;26.35;;;16.63;;
54795;SDS011;40693;43.884;20.340;2022-09-28T07:05:02;16.13;;;12.93;;
54795;SDS011;40693;43.884;20.340;2022-09-28T07:07:28;16.58;;;12.65;;
54795;SDS011;40693;43.884;20.340;2022-09-28T07:09:55;17.02;;;11.00;;
54795;SDS011;40693;43.884;20.340;2022-09-28T07:12:21;13.43;;;10.52;;
54795;SDS011;40693;43.884;20.340;2022-09-28T07:14:49;13.25;;;9.73;;
54795;SDS011;40693;43.884;20.340;2022-09-28T07:17:20;15.00;;;10.20;;
54795;SDS011;40693;43.884;20.340;2022-09-28T07:19:47;14.02;;;9.18;;
54795;SDS011;40693;43.884;20.340;2022-09-28T07:22:22;12.38;;;8.52;;
54795;SDS011;40693;43.884;20.340;2022-09-28T07:24:48;11.77;;;8.50;;
54795;SDS011;40693;43.884;20.340;2022-09-28T07:27:16;11.30;;;8.73;;
54795;SDS011;40693;43.884;20.340;2022-09-28T07:29:43;19.58;;;12.98;;
54795;SDS011;40693;43.884;20.340;2022-09-28T07:32:12;13.63;;;11.13;;
54795;SDS011;40693;43.884;20.340;2022-09-28T07:34:38;17.27;;;12.50;;
54795;SDS011;40693;43.884;20.340;2022-09-28T07:37:10;21.17;;;13.80;;
54795;SDS011;40693;43.884;20.340;2022-09-28T07:39:37;20.05;;;13.63;;
54795;SDS011;40693;43.884;20.340;2022-09-28T07:42:22;21.58;;;14.75;;
54795;SDS011;40693;43.884;20.340;2022-09-28T07:44:49;142.40;;;90.07;;
54795;SDS011;40693;43.884;20.340;2022-09-28T07:47:15;23.73;;;16.42;;
54795;SDS011;40693;43.884;20.340;2022-09-28T07:49:42;18.02;;;11.32;;
54795;SDS011;40693;43.884;20.340;2022-09-28T07:52:15;17.00;;;11.82;;
54795;SDS011;40693;43.884;20.340;2022-09-28T07:54:40;16.83;;;11.68;;
54795;SDS011;40693;43.884;20.340;2022-09-28T07:57:06;25.33;;;13.15;;
54795;SDS011;40693;43.884;20.340;2022-09-28T07:59:32;22.50;;;14.98;;
54795;SDS011;40693;43.884;20.340;2022-09-28T08:01:58;19.23;;;12.10;;
54795;SDS011;40693;43.884;20.340;2022-09-28T08:04:24;16.77;;;12.13;;
54795;SDS011;40693;43.884;20.340;2022-09-28T08:06:49;13.07;;;10.63;;
54795;SDS011;40693;43.884;20.340;2022-09-28T08:09:15;17.05;;;15.20;;
54795;SDS011;40693;43.884;20.340;2022-09-28T08:11:41;23.10;;;16.48;;
54795;SDS011;40693;43.884;20.340;2022-09-28T08:14:08;15.38;;;12.75;;
54795;SDS011;40693;43.884;20.340;2022-09-28T08:16:35;12.38;;;9.77;;
54795;SDS011;40693;43.884;20.340;2022-09-28T08:19:01;11.20;;;9.93;;
54795;SDS011;40693;43.884;20.340;2022-09-28T08:21:27;15.00;;;10.50;;
54795;SDS011;40693;43.884;20.340;2022-09-28T08:24:12;13.38;;;10.20;;
54795;SDS011;40693;43.884;20.340;2022-09-28T08:26:38;14.43;;;12.57;;
54795;SDS011;40693;43.884;20.340;2022-09-28T08:29:04;14.90;;;11.27;;
54795;SDS011;40693;43.884;20.340;2022-09-28T08:31:30;18.20;;;14.70;;
54795;SDS011;40693;43.884;20.340;2022-09-28T08:33:56;23.20;;;20.70;;
54795;SDS011;40693;43.884;20.340;2022-09-28T08:36:22;17.85;;;13.05;;
54795;SDS011;40693;43.884;20.340;2022-09-28T08:38:49;21.13;;;18.92;;
54795;SDS011;40693;43.884;20.340;2022-09-28T08:44:20;14.70;;;12.20;;
54795;SDS011;40693;43.884;20.340;2022-09-28T08:46:50;17.08;;;13.07;;
54795;SDS011;40693;43.884;20.340;2022-09-28T08:49:35;16.20;;;11.93;;
54795;SDS011;40693;43.884;20.340;2022-09-28T08:52:10;19.13;;;15.13;;
54795;SDS011;40693;43.884;20.340;2022-09-28T09:02:59;18.45;;;14.40;;
54795;SDS011;40693;43.884;20.340;2022-09-28T09:11:17;19.85;;;13.20;;
54795;SDS011;40693;43.884;20.340;2022-09-28T09:25:16;15.63;;;12.38;;
54795;SDS011;40693;43.884;20.340;2022-09-28T09:30:19;21.25;;;14.18;;
54795;SDS011;40693;43.884;20.340;2022-09-28T09:33:00;13.63;;;11.10;;
54795;SDS011;40693;43.884;20.340;2022-09-28T09:35:50;16.23;;;12.63;;
54795;SDS011;40693;43.884;20.340;2022-09-28T09:38:38;13.27;;;10.45;;
54795;SDS011;40693;43.884;20.340;2022-09-28T09:46:53;17.08;;;12.55;;
54795;SDS011;40693;43.884;20.340;2022-09-28T09:49:51;13.73;;;12.27;;
54795;SDS011;40693;43.884;20.340;2022-09-28T09:52:26;14.00;;;10.93;;
54795;SDS011;40693;43.884;20.340;2022-09-28T09:58:13;22.83;;;14.80;;
54795;SDS011;40693;43.884;20.340;2022-09-28T10:00:42;17.85;;;12.90;;
54795;SDS011;40693;43.884;20.340;2022-09-28T10:06:16;16.38;;;12.05;;
54795;SDS011;40693;43.884;20.340;2022-09-28T10:08:55;13.90;;;10.85;;
54795;SDS011;40693;43.884;20.340;2022-09-28T10:11:35;22.85;;;18.73;;
54795;SDS011;40693;43.884;20.340;2022-09-28T10:14:14;19.77;;;13.65;;
54795;SDS011;40693;43.884;20.340;2022-09-28T10:16:42;16.20;;;11.13;;
54795;SDS011;40693;43.884;20.340;2022-09-28T10:19:10;18.88;;;14.05;;
54795;SDS011;40693;43.884;20.340;2022-09-28T10:21:37;16.50;;;12.68;;
54795;SDS011;40693;43.884;20.340;2022-09-28T10:24:07;16.02;;;12.57;;
54795;SDS011;40693;43.884;20.340;2022-09-28T10:26:45;15.75;;;11.70;;
54795;SDS011;40693;43.884;20.340;2022-09-28T10:29:15;35.67;;;22.98;;
54795;SDS011;40693;43.884;20.340;2022-09-28T10:31:45;24.77;;;17.00;;
54795;SDS011;40693;43.884;20.340;2022-09-28T10:34:25;23.83;;;15.27;;
54795;SDS011;40693;43.884;20.340;2022-09-28T10:36:54;16.17;;;11.65;;
54795;SDS011;40693;43.884;20.340;2022-09-28T10:39:27;22.88;;;16.95;;
54795;SDS011;40693;43.884;20.340;2022-09-28T10:42:01;21.85;;;13.45;;
54795;SDS011;40693;43.884;20.340;2022-09-28T10:44:31;13.23;;;9.63;;
54795;SDS011;40693;43.884;20.340;2022-09-28T10:46:59;12.43;;;9.02;;
54795;SDS011;40693;43.884;20.340;2022-09-28T10:49:29;9.95;;;8.57;;
54795;SDS011;40693;43.884;20.340;2022-09-28T10:52:28;60.25;;;48.08;;
54795;SDS011;40693;43.884;20.340;2022-09-28T10:54:56;58.33;;;48.72;;
54795;SDS011;40693;43.884;20.340;2022-09-28T10:57:33;40.60;;;36.78;;
54795;SDS011;40693;43.884;20.340;2022-09-28T11:00:00;14.27;;;10.90;;
54795;SDS011;40693;43.884;20.340;2022-09-28T11:02:28;12.18;;;8.70;;
54795;SDS011;40693;43.884;20.340;2022-09-28T11:04:57;23.25;;;16.83;;
54795;SDS011;40693;43.884;20.340;2022-09-28T11:07:26;130.50;;;62.35;;
54795;SDS011;40693;43.884;20.340;2022-09-28T11:09:57;39.80;;;25.73;;
54795;SDS011;40693;43.884;20.340;2022-09-28T11:12:29;24.33;;;16.10;;
54795;SDS011;40693;43.884;20.340;2022-09-28T11:15:03;10.45;;;8.90;;
54795;SDS011;40693;43.884;20.340;2022-09-28T11:17:34;11.77;;;9.93;;
54795;SDS011;40693;43.884;20.340;2022-09-28T11:25:24;12.13;;;8.43;;
54795;SDS011;40693;43.884;20.340;2022-09-28T11:27:56;16.45;;;12.27;;
54795;SDS011;40693;43.884;20.340;2022-09-28T11:30:23;11.52;;;8.07;;
54795;SDS011;40693;43.884;20.340;2022-09-28T11:32:50;15.27;;;9.02;;
54795;SDS011;40693;43.884;20.340;2022-09-28T11:35:19;8.73;;;7.47;;
54795;SDS011;40693;43.884;20.340;2022-09-28T11:40:35;11.73;;;7.45;;
54795;SDS011;40693;43.884;20.340;2022-09-28T11:43:12;8.70;;;7.15;;
54795;SDS011;40693;43.884;20.340;2022-09-28T11:45:56;12.52;;;7.25;;
54795;SDS011;40693;43.884;20.340;2022-09-28T11:48:42;11.05;;;6.47;;
54795;SDS011;40693;43.884;20.340;2022-09-28T11:51:26;20.77;;;12.98;;
54795;SDS011;40693;43.884;20.340;2022-09-28T11:54:04;13.55;;;9.48;;
54795;SDS011;40693;43.884;20.340;2022-09-28T11:56:39;17.50;;;14.18;;
54795;SDS011;40693;43.884;20.340;2022-09-28T12:01:52;10.88;;;7.68;;
54795;SDS011;40693;43.884;20.340;2022-09-28T12:04:36;16.10;;;9.38;;
54795;SDS011;40693;43.884;20.340;2022-09-28T12:12:34;9.70;;;7.07;;
54795;SDS011;40693;43.884;20.340;2022-09-28T12:15:12;13.35;;;8.07;;
54795;SDS011;40693;43.884;20.340;2022-09-28T12:17:48;16.65;;;10.25;;
54795;SDS011;40693;43.884;20.340;2022-09-28T12:20:18;11.48;;;8.93;;
54795;SDS011;40693;43.884;20.340;2022-09-28T12:25:24;10.05;;;7.63;;
54795;SDS011;40693;43.884;20.340;2022-09-28T12:28:04;10.25;;;8.38;;
54795;SDS011;40693;43.884;20.340;2022-09-28T12:30:35;8.15;;;6.68;;
54795;SDS011;40693;43.884;20.340;2022-09-28T12:33:07;11.75;;;9.13;;
54795;SDS011;40693;43.884;20.340;2022-09-28T12:35:39;14.48;;;8.23;;
54795;SDS011;40693;43.884;20.340;2022-09-28T12:58:24;18.15;;;10.73;;
54795;SDS011;40693;43.884;20.340;2022-09-28T13:01:08;48.17;;;30.15;;
54795;SDS011;40693;43.884;20.340;2022-09-28T13:09:00;83.03;;;53.00;;
54795;SDS011;40693;43.884;20.340;2022-09-28T13:17:19;58.85;;;43.72;;
54795;SDS011;40693;43.884;20.340;2022-09-28T13:25:22;19.95;;;13.38;;
54795;SDS011;40693;43.884;20.340;2022-09-28T13:27:52;22.98;;;15.90;;
54795;SDS011;40693;43.884;20.340;2022-09-28T13:30:24;17.30;;;12.73;;
54795;SDS011;40693;43.884;20.340;2022-09-28T13:32:51;16.00;;;9.98;;
54795;SDS011;40693;43.884;20.340;2022-09-28T13:35:20;15.43;;;9.23;;
54795;SDS011;40693;43.884;20.340;2022-09-28T13:37:46;14.93;;;12.38;;
54795;SDS011;40693;43.884;20.340;2022-09-28T13:43:30;10.77;;;7.93;;
54795;SDS011;40693;43.884;20.340;2022-09-28T13:46:09;10.18;;;7.43;;
54795;SDS011;40693;43.884;20.340;2022-09-28T13:57:20;10.80;;;7.72;;
54795;SDS011;40693;43.884;20.340;2022-09-28T13:59:56;12.07;;;8.18;;
54795;SDS011;40693;43.884;20.340;2022-09-28T14:02:47;18.52;;;10.88;;
54795;SDS011;40693;43.884;20.340;2022-09-28T14:08:36;32.42;;;22.90;;
54795;SDS011;40693;43.884;20.340;2022-09-28T14:14:01;17.38;;;10.90;;
54795;SDS011;40693;43.884;20.340;2022-09-28T14:16:30;11.95;;;9.50;;
54795;SDS011;40693;43.884;20.340;2022-09-28T14:19:07;14.30;;;8.77;;
54795;SDS011;40693;43.884;20.340;2022-09-28T14:32:54;14.35;;;9.50;;
54795;SDS011;40693;43.884;20.340;2022-09-28T14:38:04;11.05;;;8.02;;
54795;SDS011;40693;43.884;20.340;2022-09-28T14:48:50;11.00;;;7.47;;
54795;SDS011;40693;43.884;20.340;2022-09-28T14:59:23;15.63;;;10.52;;
54795;SDS011;40693;43.884;20.340;2022-09-28T15:02:03;12.80;;;8.32;;
54795;SDS011;40693;43.884;20.340;2022-09-28T15:04:48;10.73;;;7.43;;
54795;SDS011;40693;43.884;20.340;2022-09-28T15:07:29;14.68;;;12.20;;
54795;SDS011;40693;43.884;20.340;2022-09-28T15:13:17;15.40;;;13.00;;
54795;SDS011;40693;43.884;20.340;2022-09-28T15:16:08;20.17;;;13.10;;
54795;SDS011;40693;43.884;20.340;2022-09-28T15:21:32;12.00;;;9.18;;
54795;SDS011;40693;43.884;20.340;2022-09-28T15:24:00;16.08;;;10.45;;
54795;SDS011;40693;43.884;20.340;2022-09-28T15:26:32;13.20;;;11.63;;
54795;SDS011;40693;43.884;20.340;2022-09-28T15:32:00;14.15;;;10.90;;
54795;SDS011;40693;43.884;20.340;2022-09-28T15:34:32;18.70;;;13.48;;
54795;SDS011;40693;43.884;20.340;2022-09-28T15:37:20;16.40;;;11.32;;
54795;SDS011;40693;43.884;20.340;2022-09-28T15:39:52;14.18;;;10.23;;
54795;SDS011;40693;43.884;20.340;2022-09-28T15:42:21;16.20;;;10.88;;
54795;SDS011;40693;43.884;20.340;2022-09-28T15:45:31;22.77;;;16.92;;
54795;SDS011;40693;43.884;20.340;2022-09-28T15:47:37;19.58;;;13.98;;
54795;SDS011;40693;43.884;20.340;2022-09-28T15:50:05;15.52;;;11.85;;
54795;SDS011;40693;43.884;20.340;2022-09-28T15:52:44;18.73;;;15.15;;
54795;SDS011;40693;43.884;20.340;2022-09-28T15:55:21;25.92;;;17.08;;
54795;SDS011;40693;43.884;20.340;2022-09-28T15:57:49;26.92;;;20.42;;
54795;SDS011;40693;43.884;20.340;2022-09-28T16:00:28;32.08;;;23.67;;
54795;SDS011;40693;43.884;20.340;2022-09-28T16:05:43;75.85;;;56.38;;
54795;SDS011;40693;43.884;20.340;2022-09-28T16:08:14;111.40;;;83.20;;
54795;SDS011;40693;43.884;20.340;2022-09-28T16:17:04;48.72;;;37.30;;
54795;SDS011;40693;43.884;20.340;2022-09-28T16:19:23;57.25;;;40.08;;
54795;SDS011;40693;43.884;20.340;2022-09-28T16:21:56;45.13;;;34.70;;
54795;SDS011;40693;43.884;20.340;2022-09-28T16:24:33;40.33;;;31.38;;
54795;SDS011;40693;43.884;20.340;2022-09-28T16:27:02;39.70;;;29.02;;
54795;SDS011;40693;43.884;20.340;2022-09-28T16:37:37;50.45;;;29.88;;
54795;SDS011;40693;43.884;20.340;2022-09-28T16:40:10;50.03;;;32.20;;
54795;SDS011;40693;43.884;20.340;2022-09-28T16:42:40;48.88;;;34.78;;
54795;SDS011;40693;43.884;20.340;2022-09-28T16:45:08;40.05;;;30.02;;
54795;SDS011;40693;43.884;20.340;2022-09-28T16:47:42;39.45;;;31.02;;
54795;SDS011;40693;43.884;20.340;2022-09-28T16:50:14;54.55;;;39.65;;
54795;SDS011;40693;43.884;20.340;2022-09-28T16:52:41;81.80;;;59.53;;
54795;SDS011;40693;43.884;20.340;2022-09-28T16:55:25;87.63;;;64.72;;
54795;SDS011;40693;43.884;20.340;2022-09-28T16:57:52;80.05;;;58.55;;
54795;SDS011;40693;43.884;20.340;2022-09-28T17:00:20;69.80;;;50.63;;
54795;SDS011;40693;43.884;20.340;2022-09-28T17:02:50;57.38;;;37.28;;
54795;SDS011;40693;43.884;20.340;2022-09-28T17:05:19;48.38;;;33.35;;
54795;SDS011;40693;43.884;20.340;2022-09-28T17:07:53;53.83;;;32.83;;
54795;SDS011;40693;43.884;20.340;2022-09-28T17:10:33;47.58;;;33.15;;
54795;SDS011;40693;43.884;20.340;2022-09-28T17:13:01;50.42;;;32.08;;
54795;SDS011;40693;43.884;20.340;2022-09-28T17:15:27;40.75;;;29.30;;
54795;SDS011;40693;43.884;20.340;2022-09-28T17:17:53;34.50;;;28.60;;
54795;SDS011;40693;43.884;20.340;2022-09-28T17:20:24;41.00;;;29.83;;
54795;SDS011;40693;43.884;20.340;2022-09-28T17:22:52;40.28;;;30.02;;
54795;SDS011;40693;43.884;20.340;2022-09-28T17:25:21;33.03;;;24.77;;
54795;SDS011;40693;43.884;20.340;2022-09-28T17:27:48;36.58;;;24.60;;
54795;SDS011;40693;43.884;20.340;2022-09-28T17:30:15;34.63;;;23.50;;
54795;SDS011;40693;43.884;20.340;2022-09-28T17:32:41;33.00;;;22.08;;
54795;SDS011;40693;43.884;20.340;2022-09-28T17:35:11;31.25;;;20.58;;
54795;SDS011;40693;43.884;20.340;2022-09-28T17:37:41;26.17;;;18.88;;
54795;SDS011;40693;43.884;20.340;2022-09-28T17:40:26;26.13;;;19.60;;
54795;SDS011;40693;43.884;20.340;2022-09-28T17:42:53;25.67;;;19.95;;
54795;SDS011;40693;43.884;20.340;2022-09-28T17:45:20;26.77;;;19.55;;
54795;SDS011;40693;43.884;20.340;2022-09-28T17:47:50;24.45;;;18.77;;
54795;SDS011;40693;43.884;20.340;2022-09-28T17:52:46;30.98;;;24.25;;
54795;SDS011;40693;43.884;20.340;2022-09-28T17:55:23;34.35;;;22.63;;
54795;SDS011;40693;43.884;20.340;2022-09-28T17:57:54;34.15;;;26.45;;
54795;SDS011;40693;43.884;20.340;2022-09-28T18:00:20;34.92;;;26.13;;
54795;SDS011;40693;43.884;20.340;2022-09-28T18:02:54;33.78;;;26.50;;
54795;SDS011;40693;43.884;20.340;2022-09-28T18:05:21;40.70;;;27.35;;
54795;SDS011;40693;43.884;20.340;2022-09-28T18:07:48;32.55;;;25.05;;